sensor_id;sensor_type;location;lat;lon;timestamp;P1;durP1;ratioP1;P2;durP2;ratioP2
51332;SDS011;37417;48.118;11.734;2023-04-25T00:01:45;1.35;;;1.25;;
51332;SDS011;37417;48.118;11.734;2023-04-25T00:04:31;2.88;;;2.05;;
51332;SDS011;37417;48.118;11.734;2023-04-25T00:07:18;1.75;;;1.65;;
51332;SDS011;37417;48.118;11.734;2023-04-25T00:10:04;1.85;;;1.60;;
51332;SDS011;37417;48.118;11.734;2023-04-25T00:12:51;3.72;;;1.83;;
51332;SDS011;37417;48.118;11.734;2023-04-25T00:15:36;1.75;;;1.50;;
51332;SDS011;37417;48.118;11.734;2023-04-25T00:18:23;1.10;;;1.00;;
51332;SDS011;37417;48.118;11.734;2023-04-25T00:21:09;3.72;;;1.70;;
51332;SDS011;37417;48.118;11.734;2023-04-25T00:23:55;1.30;;;1.20;;
51332;SDS011;37417;48.118;11.734;2023-04-25T00:26:41;4.05;;;1.02;;
51332;SDS011;37417;48.118;11.734;2023-04-25T00:29:27;2.50;;;1.50;;
51332;SDS011;37417;48.118;11.734;2023-04-25T00:32:12;2.10;;;1.42;;
51332;SDS011;37417;48.118;11.734;2023-04-25T00:34:58;2.03;;;1.60;;
51332;SDS011;37417;48.118;11.734;2023-04-25T00:37:43;1.80;;;1.42;;
51332;SDS011;37417;48.118;11.734;2023-04-25T00:40:30;3.92;;;1.60;;
51332;SDS011;37417;48.118;11.734;2023-04-25T00:43:15;1.45;;;1.35;;
51332;SDS011;37417;48.118;11.734;2023-04-25T00:46:01;1.42;;;1.33;;
51332;SDS011;37417;48.118;11.734;2023-04-25T00:48:47;1.65;;;1.50;;
51332;SDS011;37417;48.118;11.734;2023-04-25T00:51:33;1.15;;;1.05;;
51332;SDS011;37417;48.118;11.734;2023-04-25T00:54:19;2.80;;;1.48;;
51332;SDS011;37417;48.118;11.734;2023-04-25T00:57:05;2.72;;;1.23;;
51332;SDS011;37417;48.118;11.734;2023-04-25T00:59:51;1.80;;;1.38;;
51332;SDS011;37417;48.118;11.734;2023-04-25T01:02:38;0.90;;;0.90;;
51332;SDS011;37417;48.118;11.734;2023-04-25T01:05:24;4.47;;;1.75;;
51332;SDS011;37417;48.118;11.734;2023-04-25T01:08:10;2.10;;;1.02;;
51332;SDS011;37417;48.118;11.734;2023-04-25T01:10:56;2.10;;;1.33;;
51332;SDS011;37417;48.118;11.734;2023-04-25T01:13:41;5.50;;;1.75;;
51332;SDS011;37417;48.118;11.734;2023-04-25T01:16:27;3.03;;;1.33;;
51332;SDS011;37417;48.118;11.734;2023-04-25T01:19:13;1.92;;;1.17;;
51332;SDS011;37417;48.118;11.734;2023-04-25T01:22:01;1.92;;;1.55;;
51332;SDS011;37417;48.118;11.734;2023-04-25T01:24:48;1.20;;;1.08;;
51332;SDS011;37417;48.118;11.734;2023-04-25T01:27:35;1.90;;;1.38;;
51332;SDS011;37417;48.118;11.734;2023-04-25T01:30:21;6.38;;;1.35;;
51332;SDS011;37417;48.118;11.734;2023-04-25T01:33:07;2.92;;;1.42;;
51332;SDS011;37417;48.118;11.734;2023-04-25T01:35:54;2.10;;;1.50;;
51332;SDS011;37417;48.118;11.734;2023-04-25T01:38:40;3.22;;;1.42;;
51332;SDS011;37417;48.118;11.734;2023-04-25T01:41:26;1.73;;;1.50;;
51332;SDS011;37417;48.118;11.734;2023-04-25T01:44:13;1.10;;;1.00;;
51332;SDS011;37417;48.118;11.734;2023-04-25T01:46:59;1.65;;;1.30;;
51332;SDS011;37417;48.118;11.734;2023-04-25T01:49:44;3.95;;;1.38;;
51332;SDS011;37417;48.118;11.734;2023-04-25T01:52:30;1.35;;;1.10;;
51332;SDS011;37417;48.118;11.734;2023-04-25T01:55:16;1.70;;;1.40;;
51332;SDS011;37417;48.118;11.734;2023-04-25T01:58:02;2.85;;;1.80;;
51332;SDS011;37417;48.118;11.734;2023-04-25T02:00:49;6.10;;;1.95;;
51332;SDS011;37417;48.118;11.734;2023-04-25T02:03:34;2.95;;;1.63;;
51332;SDS011;37417;48.118;11.734;2023-04-25T02:06:21;1.95;;;1.40;;
51332;SDS011;37417;48.118;11.734;2023-04-25T02:09:07;1.75;;;1.48;;
51332;SDS011;37417;48.118;11.734;2023-04-25T02:11:52;3.35;;;1.73;;
51332;SDS011;37417;48.118;11.734;2023-04-25T02:14:38;1.40;;;1.30;;
51332;SDS011;37417;48.118;11.734;2023-04-25T02:17:24;1.55;;;1.30;;
51332;SDS011;37417;48.118;11.734;2023-04-25T02:20:09;3.10;;;1.30;;
51332;SDS011;37417;48.118;11.734;2023-04-25T02:22:56;1.70;;;1.40;;
51332;SDS011;37417;48.118;11.734;2023-04-25T02:25:41;3.78;;;1.67;;
51332;SDS011;37417;48.118;11.734;2023-04-25T02:28:27;1.52;;;1.40;;
51332;SDS011;37417;48.118;11.734;2023-04-25T02:31:13;3.63;;;1.63;;
51332;SDS011;37417;48.118;11.734;2023-04-25T02:33:58;2.63;;;1.80;;
51332;SDS011;37417;48.118;11.734;2023-04-25T02:36:44;1.65;;;1.55;;
51332;SDS011;37417;48.118;11.734;2023-04-25T02:39:30;2.35;;;1.40;;
51332;SDS011;37417;48.118;11.734;2023-04-25T02:42:15;2.55;;;1.55;;
51332;SDS011;37417;48.118;11.734;2023-04-25T02:45:01;2.00;;;1.48;;
51332;SDS011;37417;48.118;11.734;2023-04-25T02:47:47;3.75;;;1.88;;
51332;SDS011;37417;48.118;11.734;2023-04-25T02:50:33;1.75;;;1.40;;
51332;SDS011;37417;48.118;11.734;2023-04-25T02:53:19;3.33;;;1.67;;
51332;SDS011;37417;48.118;11.734;2023-04-25T02:56:04;2.65;;;1.30;;
51332;SDS011;37417;48.118;11.734;2023-04-25T02:58:50;6.00;;;1.17;;
51332;SDS011;37417;48.118;11.734;2023-04-25T03:01:36;2.05;;;1.33;;
51332;SDS011;37417;48.118;11.734;2023-04-25T03:04:21;2.25;;;1.48;;
51332;SDS011;37417;48.118;11.734;2023-04-25T03:07:09;3.63;;;1.10;;
51332;SDS011;37417;48.118;11.734;2023-04-25T03:09:55;2.15;;;1.80;;
51332;SDS011;37417;48.118;11.734;2023-04-25T03:12:41;2.72;;;1.50;;
51332;SDS011;37417;48.118;11.734;2023-04-25T03:15:27;3.60;;;1.38;;
51332;SDS011;37417;48.118;11.734;2023-04-25T03:18:13;3.92;;;1.70;;
51332;SDS011;37417;48.118;11.734;2023-04-25T03:20:58;2.20;;;1.77;;
51332;SDS011;37417;48.118;11.734;2023-04-25T03:23:44;1.48;;;1.38;;
51332;SDS011;37417;48.118;11.734;2023-04-25T03:26:30;2.33;;;1.80;;
51332;SDS011;37417;48.118;11.734;2023-04-25T03:29:16;5.65;;;1.83;;
51332;SDS011;37417;48.118;11.734;2023-04-25T03:32:01;1.80;;;1.70;;
51332;SDS011;37417;48.118;11.734;2023-04-25T03:34:47;3.53;;;1.42;;
51332;SDS011;37417;48.118;11.734;2023-04-25T03:37:33;4.07;;;1.85;;
51332;SDS011;37417;48.118;11.734;2023-04-25T03:40:19;3.00;;;1.50;;
51332;SDS011;37417;48.118;11.734;2023-04-25T03:43:05;5.85;;;1.58;;
51332;SDS011;37417;48.118;11.734;2023-04-25T03:45:50;1.52;;;1.42;;
51332;SDS011;37417;48.118;11.734;2023-04-25T03:48:36;1.30;;;1.02;;
51332;SDS011;37417;48.118;11.734;2023-04-25T03:51:22;4.47;;;1.33;;
51332;SDS011;37417;48.118;11.734;2023-04-25T03:54:07;3.22;;;1.40;;
51332;SDS011;37417;48.118;11.734;2023-04-25T03:56:53;1.58;;;1.15;;
51332;SDS011;37417;48.118;11.734;2023-04-25T03:59:39;1.27;;;1.17;;
51332;SDS011;37417;48.118;11.734;2023-04-25T04:02:24;0.85;;;0.85;;
51332;SDS011;37417;48.118;11.734;2023-04-25T04:05:10;1.40;;;0.80;;
51332;SDS011;37417;48.118;11.734;2023-04-25T04:07:56;3.42;;;1.30;;
51332;SDS011;37417;48.118;11.734;2023-04-25T04:10:41;1.80;;;1.08;;
51332;SDS011;37417;48.118;11.734;2023-04-25T04:13:27;1.35;;;1.00;;
51332;SDS011;37417;48.118;11.734;2023-04-25T04:16:13;1.83;;;1.20;;
51332;SDS011;37417;48.118;11.734;2023-04-25T04:18:59;3.63;;;1.30;;
51332;SDS011;37417;48.118;11.734;2023-04-25T04:21:45;4.18;;;1.38;;
51332;SDS011;37417;48.118;11.734;2023-04-25T04:24:30;4.75;;;1.42;;
51332;SDS011;37417;48.118;11.734;2023-04-25T04:27:19;5.60;;;1.15;;
51332;SDS011;37417;48.118;11.734;2023-04-25T04:30:06;1.17;;;0.70;;
51332;SDS011;37417;48.118;11.734;2023-04-25T04:32:52;3.90;;;1.38;;
51332;SDS011;37417;48.118;11.734;2023-04-25T04:35:38;1.50;;;1.23;;
51332;SDS011;37417;48.118;11.734;2023-04-25T04:38:24;0.90;;;0.55;;
51332;SDS011;37417;48.118;11.734;2023-04-25T04:41:10;1.33;;;0.93;;
51332;SDS011;37417;48.118;11.734;2023-04-25T04:43:56;1.20;;;1.13;;
51332;SDS011;37417;48.118;11.734;2023-04-25T04:46:41;3.65;;;1.33;;
51332;SDS011;37417;48.118;11.734;2023-04-25T04:49:27;2.08;;;1.23;;
51332;SDS011;37417;48.118;11.734;2023-04-25T04:52:13;1.92;;;0.68;;
51332;SDS011;37417;48.118;11.734;2023-04-25T04:54:58;3.15;;;1.38;;
51332;SDS011;37417;48.118;11.734;2023-04-25T04:57:44;1.90;;;1.02;;
51332;SDS011;37417;48.118;11.734;2023-04-25T05:00:30;2.05;;;1.17;;
51332;SDS011;37417;48.118;11.734;2023-04-25T05:03:15;4.75;;;1.05;;
51332;SDS011;37417;48.118;11.734;2023-04-25T05:06:01;1.67;;;1.08;;
51332;SDS011;37417;48.118;11.734;2023-04-25T05:08:47;5.78;;;1.40;;
51332;SDS011;37417;48.118;11.734;2023-04-25T05:11:33;2.72;;;1.23;;
51332;SDS011;37417;48.118;11.734;2023-04-25T05:14:18;1.10;;;1.10;;
51332;SDS011;37417;48.118;11.734;2023-04-25T05:17:04;3.00;;;1.30;;
51332;SDS011;37417;48.118;11.734;2023-04-25T05:19:53;3.17;;;1.50;;
51332;SDS011;37417;48.118;11.734;2023-04-25T05:22:39;2.50;;;1.35;;
51332;SDS011;37417;48.118;11.734;2023-04-25T05:25:26;2.28;;;1.63;;
51332;SDS011;37417;48.118;11.734;2023-04-25T05:28:12;1.23;;;1.10;;
51332;SDS011;37417;48.118;11.734;2023-04-25T05:30:58;1.63;;;1.08;;
51332;SDS011;37417;48.118;11.734;2023-04-25T05:33:44;3.50;;;1.10;;
51332;SDS011;37417;48.118;11.734;2023-04-25T05:36:30;2.00;;;1.52;;
51332;SDS011;37417;48.118;11.734;2023-04-25T05:39:17;2.95;;;1.10;;
51332;SDS011;37417;48.118;11.734;2023-04-25T05:42:03;2.85;;;1.30;;
51332;SDS011;37417;48.118;11.734;2023-04-25T05:44:49;3.83;;;1.30;;
51332;SDS011;37417;48.118;11.734;2023-04-25T05:47:34;2.33;;;1.67;;
51332;SDS011;37417;48.118;11.734;2023-04-25T05:50:20;3.47;;;1.50;;
51332;SDS011;37417;48.118;11.734;2023-04-25T05:53:06;5.25;;;1.50;;
51332;SDS011;37417;48.118;11.734;2023-04-25T05:55:52;2.28;;;1.55;;
51332;SDS011;37417;48.118;11.734;2023-04-25T05:58:37;2.05;;;0.93;;
51332;SDS011;37417;48.118;11.734;2023-04-25T06:01:23;2.20;;;1.45;;
51332;SDS011;37417;48.118;11.734;2023-04-25T06:04:08;3.45;;;1.80;;
51332;SDS011;37417;48.118;11.734;2023-04-25T06:06:54;3.97;;;2.03;;
51332;SDS011;37417;48.118;11.734;2023-04-25T06:09:40;4.45;;;1.80;;
51332;SDS011;37417;48.118;11.734;2023-04-25T06:12:26;1.55;;;1.20;;
51332;SDS011;37417;48.118;11.734;2023-04-25T06:15:11;1.25;;;1.15;;
51332;SDS011;37417;48.118;11.734;2023-04-25T06:17:57;2.47;;;1.20;;
51332;SDS011;37417;48.118;11.734;2023-04-25T06:20:43;1.55;;;1.35;;
51332;SDS011;37417;48.118;11.734;2023-04-25T06:23:29;3.15;;;1.27;;
51332;SDS011;37417;48.118;11.734;2023-04-25T06:26:15;2.40;;;1.20;;
51332;SDS011;37417;48.118;11.734;2023-04-25T06:29:00;2.00;;;1.05;;
51332;SDS011;37417;48.118;11.734;2023-04-25T06:31:46;1.15;;;1.05;;
51332;SDS011;37417;48.118;11.734;2023-04-25T06:34:32;2.88;;;1.25;;
51332;SDS011;37417;48.118;11.734;2023-04-25T06:37:17;1.58;;;1.33;;
51332;SDS011;37417;48.118;11.734;2023-04-25T06:40:03;1.20;;;1.10;;
51332;SDS011;37417;48.118;11.734;2023-04-25T06:42:50;2.45;;;1.35;;
51332;SDS011;37417;48.118;11.734;2023-04-25T06:45:35;2.33;;;1.38;;
51332;SDS011;37417;48.118;11.734;2023-04-25T06:48:21;1.60;;;1.50;;
51332;SDS011;37417;48.118;11.734;2023-04-25T06:51:07;1.40;;;1.17;;
51332;SDS011;37417;48.118;11.734;2023-04-25T06:53:52;2.85;;;1.58;;
51332;SDS011;37417;48.118;11.734;2023-04-25T06:56:38;2.15;;;1.45;;
51332;SDS011;37417;48.118;11.734;2023-04-25T06:59:24;3.55;;;1.75;;
51332;SDS011;37417;48.118;11.734;2023-04-25T07:02:09;8.93;;;1.85;;
51332;SDS011;37417;48.118;11.734;2023-04-25T07:04:55;1.30;;;1.20;;
51332;SDS011;37417;48.118;11.734;2023-04-25T07:07:44;3.30;;;1.52;;
51332;SDS011;37417;48.118;11.734;2023-04-25T07:10:30;3.65;;;1.77;;
51332;SDS011;37417;48.118;11.734;2023-04-25T07:13:16;9.50;;;2.63;;
51332;SDS011;37417;48.118;11.734;2023-04-25T07:16:01;3.53;;;1.52;;
51332;SDS011;37417;48.118;11.734;2023-04-25T07:18:48;3.15;;;1.90;;
51332;SDS011;37417;48.118;11.734;2023-04-25T07:21:34;7.57;;;2.28;;
51332;SDS011;37417;48.118;11.734;2023-04-25T07:24:21;1.42;;;1.30;;
51332;SDS011;37417;48.118;11.734;2023-04-25T07:27:07;1.50;;;1.13;;
51332;SDS011;37417;48.118;11.734;2023-04-25T07:29:52;2.83;;;1.45;;
51332;SDS011;37417;48.118;11.734;2023-04-25T07:32:38;1.83;;;1.52;;
51332;SDS011;37417;48.118;11.734;2023-04-25T07:35:24;4.47;;;1.27;;
51332;SDS011;37417;48.118;11.734;2023-04-25T07:38:10;2.22;;;1.45;;
51332;SDS011;37417;48.118;11.734;2023-04-25T07:40:56;6.82;;;1.63;;
51332;SDS011;37417;48.118;11.734;2023-04-25T07:43:41;2.85;;;1.33;;
51332;SDS011;37417;48.118;11.734;2023-04-25T07:46:27;3.90;;;1.38;;
51332;SDS011;37417;48.118;11.734;2023-04-25T07:49:13;3.35;;;1.40;;
51332;SDS011;37417;48.118;11.734;2023-04-25T07:51:58;1.45;;;1.20;;
51332;SDS011;37417;48.118;11.734;2023-04-25T07:54:44;1.80;;;1.30;;
51332;SDS011;37417;48.118;11.734;2023-04-25T07:57:30;2.65;;;2.00;;
51332;SDS011;37417;48.118;11.734;2023-04-25T08:00:16;4.13;;;1.30;;
51332;SDS011;37417;48.118;11.734;2023-04-25T08:03:02;2.53;;;1.65;;
51332;SDS011;37417;48.118;11.734;2023-04-25T08:05:48;3.40;;;1.00;;
51332;SDS011;37417;48.118;11.734;2023-04-25T08:08:33;3.00;;;1.42;;
51332;SDS011;37417;48.118;11.734;2023-04-25T08:11:19;1.90;;;1.05;;
51332;SDS011;37417;48.118;11.734;2023-04-25T08:14:05;2.05;;;1.27;;
51332;SDS011;37417;48.118;11.734;2023-04-25T08:16:50;4.35;;;1.30;;
51332;SDS011;37417;48.118;11.734;2023-04-25T08:19:36;4.05;;;1.55;;
51332;SDS011;37417;48.118;11.734;2023-04-25T08:22:22;4.05;;;1.77;;
51332;SDS011;37417;48.118;11.734;2023-04-25T08:25:08;4.18;;;1.35;;
51332;SDS011;37417;48.118;11.734;2023-04-25T08:27:54;3.08;;;1.23;;
51332;SDS011;37417;48.118;11.734;2023-04-25T08:30:40;2.85;;;1.02;;
51332;SDS011;37417;48.118;11.734;2023-04-25T08:33:26;1.30;;;1.20;;
51332;SDS011;37417;48.118;11.734;2023-04-25T08:36:11;2.78;;;1.55;;
51332;SDS011;37417;48.118;11.734;2023-04-25T08:38:57;1.90;;;1.30;;
51332;SDS011;37417;48.118;11.734;2023-04-25T08:41:44;4.03;;;1.33;;
51332;SDS011;37417;48.118;11.734;2023-04-25T08:44:30;3.53;;;1.45;;
51332;SDS011;37417;48.118;11.734;2023-04-25T08:47:16;3.50;;;1.10;;
51332;SDS011;37417;48.118;11.734;2023-04-25T08:50:07;1.10;;;0.90;;
51332;SDS011;37417;48.118;11.734;2023-04-25T08:52:53;2.00;;;0.93;;
51332;SDS011;37417;48.118;11.734;2023-04-25T08:55:40;1.60;;;1.27;;
51332;SDS011;37417;48.118;11.734;2023-04-25T08:58:27;5.22;;;1.48;;
51332;SDS011;37417;48.118;11.734;2023-04-25T09:01:13;5.50;;;1.67;;
51332;SDS011;37417;48.118;11.734;2023-04-25T09:03:59;2.45;;;1.23;;
51332;SDS011;37417;48.118;11.734;2023-04-25T09:06:44;2.33;;;1.10;;
51332;SDS011;37417;48.118;11.734;2023-04-25T09:09:30;2.45;;;1.40;;
51332;SDS011;37417;48.118;11.734;2023-04-25T09:12:19;3.00;;;1.40;;
51332;SDS011;37417;48.118;11.734;2023-04-25T09:15:06;3.83;;;1.10;;
51332;SDS011;37417;48.118;11.734;2023-04-25T09:17:56;1.92;;;0.95;;
51332;SDS011;37417;48.118;11.734;2023-04-25T09:20:43;4.35;;;1.70;;
51332;SDS011;37417;48.118;11.734;2023-04-25T09:23:29;3.25;;;1.10;;
51332;SDS011;37417;48.118;11.734;2023-04-25T09:26:15;5.75;;;1.50;;
51332;SDS011;37417;48.118;11.734;2023-04-25T09:29:05;3.13;;;1.63;;
51332;SDS011;37417;48.118;11.734;2023-04-25T09:31:52;1.38;;;0.88;;
51332;SDS011;37417;48.118;11.734;2023-04-25T09:35:11;2.08;;;1.00;;
51332;SDS011;37417;48.118;11.734;2023-04-25T09:37:50;2.78;;;1.00;;
51332;SDS011;37417;48.118;11.734;2023-04-25T09:40:38;2.03;;;0.93;;
51332;SDS011;37417;48.118;11.734;2023-04-25T09:43:27;4.55;;;1.10;;
51332;SDS011;37417;48.118;11.734;2023-04-25T09:46:13;4.28;;;1.33;;
51332;SDS011;37417;48.118;11.734;2023-04-25T09:48:58;2.78;;;0.90;;
51332;SDS011;37417;48.118;11.734;2023-04-25T09:51:57;1.52;;;1.05;;
51332;SDS011;37417;48.118;11.734;2023-04-25T09:54:44;5.45;;;1.00;;
51332;SDS011;37417;48.118;11.734;2023-04-25T09:57:31;3.78;;;1.00;;
51332;SDS011;37417;48.118;11.734;2023-04-25T10:00:17;3.58;;;1.05;;
51332;SDS011;37417;48.118;11.734;2023-04-25T10:03:03;3.60;;;0.90;;
51332;SDS011;37417;48.118;11.734;2023-04-25T10:05:51;1.00;;;0.80;;
51332;SDS011;37417;48.118;11.734;2023-04-25T10:08:38;1.70;;;0.77;;
51332;SDS011;37417;48.118;11.734;2023-04-25T10:11:23;0.77;;;0.65;;
51332;SDS011;37417;48.118;11.734;2023-04-25T10:14:11;3.72;;;0.70;;
51332;SDS011;37417;48.118;11.734;2023-04-25T10:16:58;1.38;;;1.27;;
51332;SDS011;37417;48.118;11.734;2023-04-25T10:19:45;3.83;;;0.98;;
51332;SDS011;37417;48.118;11.734;2023-04-25T10:22:32;4.40;;;0.90;;
51332;SDS011;37417;48.118;11.734;2023-04-25T10:25:21;1.05;;;0.52;;
51332;SDS011;37417;48.118;11.734;2023-04-25T10:28:08;1.15;;;0.50;;
51332;SDS011;37417;48.118;11.734;2023-04-25T10:30:57;1.13;;;0.70;;
51332;SDS011;37417;48.118;11.734;2023-04-25T10:33:44;2.42;;;1.02;;
51332;SDS011;37417;48.118;11.734;2023-04-25T10:36:32;1.40;;;0.52;;
51332;SDS011;37417;48.118;11.734;2023-04-25T10:39:23;0.93;;;0.70;;
51332;SDS011;37417;48.118;11.734;2023-04-25T10:42:09;1.52;;;0.90;;
51332;SDS011;37417;48.118;11.734;2023-04-25T10:45:04;2.25;;;0.90;;
51332;SDS011;37417;48.118;11.734;2023-04-25T10:47:50;1.38;;;1.15;;
51332;SDS011;37417;48.118;11.734;2023-04-25T10:50:39;3.00;;;0.80;;
51332;SDS011;37417;48.118;11.734;2023-04-25T10:53:25;2.55;;;0.90;;
51332;SDS011;37417;48.118;11.734;2023-04-25T10:56:19;2.78;;;0.60;;
51332;SDS011;37417;48.118;11.734;2023-04-25T10:59:13;1.10;;;0.88;;
51332;SDS011;37417;48.118;11.734;2023-04-25T11:02:00;1.50;;;1.08;;
51332;SDS011;37417;48.118;11.734;2023-04-25T11:04:57;1.35;;;1.02;;
51332;SDS011;37417;48.118;11.734;2023-04-25T11:07:49;1.80;;;1.48;;
51332;SDS011;37417;48.118;11.734;2023-04-25T11:10:39;2.83;;;1.55;;
51332;SDS011;37417;48.118;11.734;2023-04-25T11:13:29;3.40;;;1.38;;
51332;SDS011;37417;48.118;11.734;2023-04-25T11:16:16;1.98;;;1.23;;
51332;SDS011;37417;48.118;11.734;2023-04-25T11:19:02;3.35;;;1.00;;
51332;SDS011;37417;48.118;11.734;2023-04-25T11:21:49;2.65;;;1.15;;
51332;SDS011;37417;48.118;11.734;2023-04-25T11:24:35;6.03;;;1.75;;
51332;SDS011;37417;48.118;11.734;2023-04-25T11:27:21;4.68;;;1.60;;
51332;SDS011;37417;48.118;11.734;2023-04-25T11:30:14;3.83;;;1.70;;
51332;SDS011;37417;48.118;11.734;2023-04-25T11:33:00;1.55;;;1.42;;
51332;SDS011;37417;48.118;11.734;2023-04-25T11:35:48;2.45;;;1.00;;
51332;SDS011;37417;48.118;11.734;2023-04-25T11:38:34;3.13;;;1.42;;
51332;SDS011;37417;48.118;11.734;2023-04-25T11:41:20;3.53;;;1.17;;
51332;SDS011;37417;48.118;11.734;2023-04-25T11:44:07;0.95;;;0.52;;
51332;SDS011;37417;48.118;11.734;2023-04-25T11:46:53;1.10;;;0.90;;
51332;SDS011;37417;48.118;11.734;2023-04-25T11:49:38;2.80;;;0.90;;
51332;SDS011;37417;48.118;11.734;2023-04-25T11:52:24;3.25;;;0.55;;
51332;SDS011;37417;48.118;11.734;2023-04-25T11:55:20;2.17;;;1.08;;
51332;SDS011;37417;48.118;11.734;2023-04-25T11:58:05;1.33;;;0.90;;
51332;SDS011;37417;48.118;11.734;2023-04-25T12:00:52;5.13;;;1.20;;
51332;SDS011;37417;48.118;11.734;2023-04-25T12:03:45;9.18;;;1.02;;
51332;SDS011;37417;48.118;11.734;2023-04-25T12:06:31;2.95;;;1.30;;
51332;SDS011;37417;48.118;11.734;2023-04-25T12:09:20;2.95;;;1.10;;
51332;SDS011;37417;48.118;11.734;2023-04-25T12:12:12;1.35;;;1.17;;
51332;SDS011;37417;48.118;11.734;2023-04-25T12:15:07;0.90;;;0.80;;
51332;SDS011;37417;48.118;11.734;2023-04-25T12:18:04;1.73;;;0.45;;
51332;SDS011;37417;48.118;11.734;2023-04-25T12:20:52;0.85;;;0.80;;
51332;SDS011;37417;48.118;11.734;2023-04-25T12:23:38;3.03;;;0.68;;
51332;SDS011;37417;48.118;11.734;2023-04-25T12:26:26;0.50;;;0.50;;
51332;SDS011;37417;48.118;11.734;2023-04-25T12:29:32;1.55;;;0.60;;
51332;SDS011;37417;48.118;11.734;2023-04-25T12:32:18;0.68;;;0.47;;
51332;SDS011;37417;48.118;11.734;2023-04-25T12:35:05;1.33;;;0.70;;
51332;SDS011;37417;48.118;11.734;2023-04-25T12:37:51;0.77;;;0.50;;
51332;SDS011;37417;48.118;11.734;2023-04-25T12:40:37;1.92;;;0.73;;
51332;SDS011;37417;48.118;11.734;2023-04-25T12:43:23;1.38;;;0.90;;
51332;SDS011;37417;48.118;11.734;2023-04-25T12:46:09;0.47;;;0.40;;
51332;SDS011;37417;48.118;11.734;2023-04-25T12:48:55;3.15;;;0.85;;
51332;SDS011;37417;48.118;11.734;2023-04-25T12:51:41;1.08;;;0.40;;
51332;SDS011;37417;48.118;11.734;2023-04-25T12:54:26;0.77;;;0.77;;
51332;SDS011;37417;48.118;11.734;2023-04-25T12:57:12;1.25;;;0.60;;
51332;SDS011;37417;48.118;11.734;2023-04-25T12:59:58;0.30;;;0.30;;
51332;SDS011;37417;48.118;11.734;2023-04-25T13:02:43;0.50;;;0.50;;
51332;SDS011;37417;48.118;11.734;2023-04-25T13:05:29;3.42;;;0.70;;
51332;SDS011;37417;48.118;11.734;2023-04-25T13:08:15;1.38;;;0.40;;
51332;SDS011;37417;48.118;11.734;2023-04-25T13:11:01;1.67;;;0.70;;
51332;SDS011;37417;48.118;11.734;2023-04-25T13:13:47;0.65;;;0.65;;
51332;SDS011;37417;48.118;11.734;2023-04-25T13:16:32;0.77;;;0.30;;
51332;SDS011;37417;48.118;11.734;2023-04-25T13:19:18;1.17;;;0.63;;
51332;SDS011;37417;48.118;11.734;2023-04-25T13:22:03;0.93;;;0.70;;
51332;SDS011;37417;48.118;11.734;2023-04-25T13:24:49;1.75;;;0.98;;
51332;SDS011;37417;48.118;11.734;2023-04-25T13:27:36;1.23;;;0.85;;
51332;SDS011;37417;48.118;11.734;2023-04-25T13:30:22;1.98;;;0.73;;
51332;SDS011;37417;48.118;11.734;2023-04-25T13:33:08;2.35;;;1.02;;
51332;SDS011;37417;48.118;11.734;2023-04-25T13:35:53;0.47;;;0.38;;
51332;SDS011;37417;48.118;11.734;2023-04-25T13:38:40;0.82;;;0.77;;
51332;SDS011;37417;48.118;11.734;2023-04-25T13:41:29;2.05;;;0.98;;
51332;SDS011;37417;48.118;11.734;2023-04-25T13:44:14;1.63;;;0.93;;
51332;SDS011;37417;48.118;11.734;2023-04-25T13:47:00;0.63;;;0.63;;
51332;SDS011;37417;48.118;11.734;2023-04-25T13:49:46;2.75;;;0.70;;
51332;SDS011;37417;48.118;11.734;2023-04-25T13:52:31;0.90;;;0.70;;
51332;SDS011;37417;48.118;11.734;2023-04-25T13:55:17;1.55;;;0.75;;
51332;SDS011;37417;48.118;11.734;2023-04-25T13:58:03;0.85;;;0.73;;
51332;SDS011;37417;48.118;11.734;2023-04-25T14:00:55;0.55;;;0.52;;
51332;SDS011;37417;48.118;11.734;2023-04-25T14:03:40;1.00;;;0.70;;
51332;SDS011;37417;48.118;11.734;2023-04-25T14:06:26;0.88;;;0.73;;
51332;SDS011;37417;48.118;11.734;2023-04-25T14:09:12;0.70;;;0.70;;
51332;SDS011;37417;48.118;11.734;2023-04-25T14:11:58;1.45;;;0.80;;
51332;SDS011;37417;48.118;11.734;2023-04-25T14:14:44;3.05;;;0.70;;
51332;SDS011;37417;48.118;11.734;2023-04-25T14:17:29;1.88;;;0.70;;
51332;SDS011;37417;48.118;11.734;2023-04-25T14:20:15;0.70;;;0.70;;
51332;SDS011;37417;48.118;11.734;2023-04-25T14:23:01;1.05;;;0.70;;
51332;SDS011;37417;48.118;11.734;2023-04-25T14:25:46;0.63;;;0.63;;
51332;SDS011;37417;48.118;11.734;2023-04-25T14:28:32;1.25;;;0.75;;
51332;SDS011;37417;48.118;11.734;2023-04-25T14:31:18;2.25;;;0.75;;
51332;SDS011;37417;48.118;11.734;2023-04-25T14:34:04;0.75;;;0.65;;
51332;SDS011;37417;48.118;11.734;2023-04-25T14:36:49;1.02;;;0.75;;
51332;SDS011;37417;48.118;11.734;2023-04-25T14:39:35;0.98;;;0.93;;
51332;SDS011;37417;48.118;11.734;2023-04-25T14:42:22;1.35;;;1.02;;
51332;SDS011;37417;48.118;11.734;2023-04-25T14:45:07;1.90;;;1.38;;
51332;SDS011;37417;48.118;11.734;2023-04-25T14:47:53;2.72;;;0.70;;
51332;SDS011;37417;48.118;11.734;2023-04-25T14:50:39;0.75;;;0.75;;
51332;SDS011;37417;48.118;11.734;2023-04-25T14:53:25;1.15;;;1.05;;
51332;SDS011;37417;48.118;11.734;2023-04-25T14:56:12;1.73;;;1.15;;
51332;SDS011;37417;48.118;11.734;2023-04-25T14:58:57;2.58;;;1.10;;
51332;SDS011;37417;48.118;11.734;2023-04-25T15:01:43;1.08;;;0.68;;
51332;SDS011;37417;48.118;11.734;2023-04-25T15:04:29;1.20;;;1.10;;
51332;SDS011;37417;48.118;11.734;2023-04-25T15:07:15;1.40;;;0.77;;
51332;SDS011;37417;48.118;11.734;2023-04-25T15:10:00;1.40;;;0.98;;
51332;SDS011;37417;48.118;11.734;2023-04-25T15:12:46;1.98;;;0.90;;
51332;SDS011;37417;48.118;11.734;2023-04-25T15:15:32;1.48;;;1.17;;
51332;SDS011;37417;48.118;11.734;2023-04-25T15:18:19;0.88;;;0.70;;
51332;SDS011;37417;48.118;11.734;2023-04-25T15:21:07;4.63;;;1.48;;
51332;SDS011;37417;48.118;11.734;2023-04-25T15:23:53;0.98;;;0.88;;
51332;SDS011;37417;48.118;11.734;2023-04-25T15:26:39;0.50;;;0.50;;
51332;SDS011;37417;48.118;11.734;2023-04-25T15:29:24;0.80;;;0.80;;
51332;SDS011;37417;48.118;11.734;2023-04-25T15:32:11;1.95;;;0.90;;
51332;SDS011;37417;48.118;11.734;2023-04-25T15:34:57;1.00;;;1.00;;
51332;SDS011;37417;48.118;11.734;2023-04-25T15:37:42;1.45;;;0.80;;
51332;SDS011;37417;48.118;11.734;2023-04-25T15:40:28;2.72;;;0.88;;
51332;SDS011;37417;48.118;11.734;2023-04-25T15:43:14;1.55;;;1.08;;
51332;SDS011;37417;48.118;11.734;2023-04-25T15:46:01;0.70;;;0.70;;
51332;SDS011;37417;48.118;11.734;2023-04-25T15:48:47;1.02;;;0.80;;
51332;SDS011;37417;48.118;11.734;2023-04-25T15:51:32;1.00;;;0.90;;
51332;SDS011;37417;48.118;11.734;2023-04-25T15:54:18;0.70;;;0.70;;
51332;SDS011;37417;48.118;11.734;2023-04-25T15:57:04;0.60;;;0.60;;
51332;SDS011;37417;48.118;11.734;2023-04-25T15:59:49;1.00;;;0.47;;
51332;SDS011;37417;48.118;11.734;2023-04-25T16:02:36;0.60;;;0.60;;
51332;SDS011;37417;48.118;11.734;2023-04-25T16:05:22;0.90;;;0.50;;
51332;SDS011;37417;48.118;11.734;2023-04-25T16:08:08;2.60;;;0.90;;
51332;SDS011;37417;48.118;11.734;2023-04-25T16:10:54;2.22;;;0.98;;
51332;SDS011;37417;48.118;11.734;2023-04-25T16:13:40;1.20;;;1.10;;
51332;SDS011;37417;48.118;11.734;2023-04-25T16:16:26;1.67;;;1.10;;
51332;SDS011;37417;48.118;11.734;2023-04-25T16:19:11;1.52;;;1.27;;
51332;SDS011;37417;48.118;11.734;2023-04-25T16:21:57;1.08;;;0.85;;
51332;SDS011;37417;48.118;11.734;2023-04-25T16:24:43;0.90;;;0.90;;
51332;SDS011;37417;48.118;11.734;2023-04-25T16:27:29;2.20;;;2.00;;